Knossos Palace — SYQO — position and weather

sailwx.info

Track history (hours):
 
Tides and Currents Weather Stations Pressure Air Temp Water Temp Dewpoint Dewpoint Depression Visibility Wind Speed Wind Dir Waves Ship Positions

Knossos Palace

Last reported at 2016-Aug-29 17:32 UTC. Time now 2016-Aug-29 18:00 UTC.
Position N 37°57' E 023°38'.

Length 214 m; beam 26.4 m; draft 7.3 m.

Type: Ship. MMSI: 237641000.

Date/timePositionNaut miles runAvg speedWind from/ knotsBaromVisibWave heightAir tempDewpointWater temp
2016-Aug-29 17:32N 37°57' E 023°38'0 0.0
2016-Aug-29 16:32N 37°57' E 023°38'0 0.0
2016-Aug-29 15:32N 37°57' E 023°38'0 0.0
2016-Aug-29 14:32N 37°57' E 023°38'0 0.0
2016-Aug-29 13:32N 37°57' E 023°38'0 0.0
2016-Aug-29 12:32N 37°57' E 023°38'0 0.0
2016-Aug-29 11:32N 37°57' E 023°38'0 0.0
2016-Aug-29 10:32N 37°57' E 023°38'0 0.0
2016-Aug-29 09:32N 37°57' E 023°38'0 0.0
2016-Aug-29 08:32N 37°57' E 023°38'0 0.0
2016-Aug-29 07:33N 37°57' E 023°38'0 0.0
2016-Aug-29 06:33N 37°57' E 023°38'0 0.0
2016-Aug-29 05:33N 37°57' E 023°38'0 0.0
2016-Aug-29 04:33N 37°57' E 023°38'0 0.0
2016-Aug-29 03:34N 37°57' E 023°38'1212.4
2016-Aug-29 02:34N 37°45' E 023°43'2221.6
2016-Aug-29 01:34N 37°25' E 023°53'1424.5
2016-Aug-29 01:00N 37°12' E 024°00'818.3 290 / 201012.910.8 25.023.624.0
2016-Aug-29 00:32N 37°04' E 024°03'58 5.0
2016-Aug-28 13:00N 36°12' E 024°36'8223.9 340 / 251015.410.8 28.025.325.0
2016-Aug-28 09:33N 37°25' E 023°49'2424.9
2016-Aug-28 08:34N 37°48' E 023°37'9 8.4
2016-Aug-28 07:32N 37°57' E 023°38'0 0.0
2016-Aug-28 06:32N 37°57' E 023°38'0 0.0
2016-Aug-28 05:32N 37°57' E 023°38'0 0.0
2016-Aug-28 04:32N 37°57' E 023°38'0 0.0
2016-Aug-28 03:33N 37°57' E 023°38'1414.1
2016-Aug-28 02:33N 37°43' E 023°44'2221.6
2016-Aug-28 01:32N 37°23' E 023°54'1221.7
2016-Aug-28 01:00N 37°12' E 024°00'67 5.5 360 / 201013.910.8 25.022.225.0
2016-Aug-27 13:00N 36°12' E 024°36'8324.1 360 / 351015.810.8 28.023.926.0
2016-Aug-27 09:33N 37°25' E 023°48'2424.4
2016-Aug-27 08:34N 37°48' E 023°37'8 8.3
2016-Aug-27 07:32N 37°57' E 023°38'0 0.0
2016-Aug-27 06:32N 37°57' E 023°38'0 0.0
2016-Aug-27 04:32N 37°57' E 023°38'0 0.1
2016-Aug-27 03:33N 37°57' E 023°38'1615.9
2016-Aug-27 02:34N 37°42' E 023°46'2221.5
2016-Aug-27 01:33N 37°21' E 023°54'77 6.1
2016-Aug-26 13:00N 36°12' E 024°36'8423.9 030 / 301012.910.8 28.023.925.0
2016-Aug-26 09:29N 37°27' E 023°49'2324.7
2016-Aug-26 08:34N 37°48' E 023°38'9 8.3
2016-Aug-26 07:31N 37°57' E 023°38'0 0.0
2016-Aug-26 06:31N 37°57' E 023°38'0 0.0
2016-Aug-26 04:33N 37°57' E 023°38'0 0.1
2016-Aug-26 03:33N 37°57' E 023°38'1413.9
2016-Aug-26 02:33N 37°43' E 023°44'2221.7
2016-Aug-26 01:33N 37°23' E 023°53'84 3.4
2016-Aug-25 01:00N 36°06' E 024°36'7820.6 340 / 161008.910.8 26.024.626.0
2016-Aug-24 21:12N 37°16' E 023°55'1421.4
2016-Aug-24 20:33N 37°29' E 023°48'2121.5
2016-Aug-24 19:33N 37°49' E 023°37'8 7.6
2016-Aug-24 18:33N 37°57' E 023°38'0 0.0
2016-Aug-24 17:32N 37°57' E 023°38'0 0.0
2016-Aug-24 16:32N 37°57' E 023°38'0 0.0
2016-Aug-24 15:32N 37°57' E 023°38'0 0.0
2016-Aug-24 14:32N 37°57' E 023°38'0 0.0
2016-Aug-24 13:32N 37°57' E 023°38'0 0.0
2016-Aug-24 12:32N 37°57' E 023°38'0 0.0
2016-Aug-24 11:32N 37°57' E 023°38'0 0.0
2016-Aug-24 10:32N 37°57' E 023°38'0 0.0
2016-Aug-24 09:32N 37°57' E 023°38'0 0.0
2016-Aug-24 08:32N 37°57' E 023°38'0 0.0
2016-Aug-24 07:32N 37°57' E 023°38'0 0.0
2016-Aug-24 06:32N 37°57' E 023°38'0 0.0
2016-Aug-24 04:32N 37°57' E 023°38'0 0.0
2016-Aug-24 03:33N 37°57' E 023°38'1212.6
2016-Aug-24 02:34N 37°45' E 023°43'2121.3
2016-Aug-24 01:33N 37°25' E 023°53'34 1.3
2016-Aug-22 23:13N 36°52' E 024°06'1522.4
2016-Aug-22 22:33N 37°06' E 023°59'2222.3
2016-Aug-22 21:33N 37°27' E 023°48'2222.4
2016-Aug-22 20:33N 37°47' E 023°38'9 9.2
2016-Aug-22 19:33N 37°57' E 023°38'0 0.0
2016-Aug-22 18:33N 37°57' E 023°38'0 0.0
2016-Aug-22 17:33N 37°57' E 023°38'0 0.0
2016-Aug-22 16:33N 37°57' E 023°38'0 0.0
2016-Aug-22 15:33N 37°57' E 023°38'0 0.0
2016-Aug-22 14:33N 37°57' E 023°38'0 0.0
2016-Aug-22 13:33N 37°57' E 023°38'0 0.0
2016-Aug-22 12:33N 37°57' E 023°38'0 0.0
2016-Aug-22 11:33N 37°57' E 023°38'0 0.0
2016-Aug-22 10:33N 37°57' E 023°38'0 0.0
2016-Aug-22 09:33N 37°57' E 023°38'0 0.0
2016-Aug-22 08:33N 37°57' E 023°38'0 0.0
2016-Aug-22 07:31N 37°57' E 023°38'0 0.0
2016-Aug-22 06:31N 37°57' E 023°38'0 0.0
2016-Aug-22 05:31N 37°57' E 023°38'0 0.0
2016-Aug-22 04:31N 37°57' E 023°38'0 0.1
2016-Aug-22 03:34N 37°57' E 023°38'1212.4
2016-Aug-22 02:34N 37°45' E 023°43'2221.7
2016-Aug-22 01:34N 37°25' E 023°53'2221.8
2016-Aug-22 00:33N 37°04' E 024°01'64 5.5
2016-Aug-21 13:00N 36°06' E 024°36'8725.1 340 / 151010.910.8 29.027.725.0
2016-Aug-21 09:33N 37°24' E 023°50'2525.0
2016-Aug-21 08:34N 37°47' E 023°38'9 9.1
2016-Aug-21 07:32N 37°57' E 023°38'0 0.0
2016-Aug-21 06:32N 37°57' E 023°38'0 0.0
2016-Aug-21 05:32N 37°57' E 023°38'0 0.0
2016-Aug-21 04:33N 37°57' E 023°38'0 0.0
2016-Aug-21 03:33N 37°57' E 023°38'1413.7
2016-Aug-21 02:33N 37°44' E 023°45'2221.6
2016-Aug-21 01:33N 37°23' E 023°54'1322.3
2016-Aug-21 01:00N 37°12' E 024°00'15 1.0 330 / 181010.410.8 26.024.626.0
2016-Aug-20 09:32N 37°25' E 023°50'2424.9
2016-Aug-20 08:34N 37°47' E 023°38'9 8.9
2016-Aug-20 07:31N 37°57' E 023°38'0 0.0
2016-Aug-20 06:31N 37°57' E 023°38'0 0.0
2016-Aug-20 05:31N 37°57' E 023°38'0 0.0
2016-Aug-20 04:31N 37°57' E 023°38'0 0.0
2016-Aug-20 03:33N 37°57' E 023°38'1211.6
2016-Aug-20 02:34N 37°46' E 023°43'2221.9
2016-Aug-20 01:33N 37°25' E 023°53'1425.4
2016-Aug-20 01:00N 37°12' E 024°00'817.7 999 / 121008.410.8 25.023.626.0
2016-Aug-20 00:34N 37°05' E 024°02'2221.7
2016-Aug-19 23:33N 36°44' E 024°12'  
Track history (hours):
 
Tides and Currents Weather Stations Pressure Air Temp Water Temp Dewpoint Dewpoint Depression Visibility Wind Speed Wind Dir Waves Ship Positions

Knossos Palace

Last reported at 2016-Aug-29 17:32 UTC. Time now 2016-Aug-29 18:00 UTC.
Position N 37°57' E 023°38'.

Length 214 m; beam 26.4 m; draft 7.3 m.

Type: Ship. MMSI: 237641000.

Date/timePositionNaut miles runAvg speedWind from/ knotsBaromVisibWave heightAir tempDewpointWater temp
2016-Aug-29 17:32N 37°57' E 023°38'0 0.0
2016-Aug-29 16:32N 37°57' E 023°38'0 0.0
2016-Aug-29 15:32N 37°57' E 023°38'0 0.0
2016-Aug-29 14:32N 37°57' E 023°38'0 0.0
2016-Aug-29 13:32N 37°57' E 023°38'0 0.0
2016-Aug-29 12:32N 37°57' E 023°38'0 0.0
2016-Aug-29 11:32N 37°57' E 023°38'0 0.0
2016-Aug-29 10:32N 37°57' E 023°38'0 0.0
2016-Aug-29 09:32N 37°57' E 023°38'0 0.0
2016-Aug-29 08:32N 37°57' E 023°38'0 0.0
2016-Aug-29 07:33N 37°57' E 023°38'0 0.0
2016-Aug-29 06:33N 37°57' E 023°38'0 0.0
2016-Aug-29 05:33N 37°57' E 023°38'0 0.0
2016-Aug-29 04:33N 37°57' E 023°38'0 0.0
2016-Aug-29 03:34N 37°57' E 023°38'1212.4
2016-Aug-29 02:34N 37°45' E 023°43'2221.6
2016-Aug-29 01:34N 37°25' E 023°53'1424.5
2016-Aug-29 01:00N 37°12' E 024°00'818.3 290 / 201012.910.8 25.023.624.0
2016-Aug-29 00:32N 37°04' E 024°03'58 5.0
2016-Aug-28 13:00N 36°12' E 024°36'8223.9 340 / 251015.410.8 28.025.325.0
2016-Aug-28 09:33N 37°25' E 023°49'2424.9
2016-Aug-28 08:34N 37°48' E 023°37'9 8.4
2016-Aug-28 07:32N 37°57' E 023°38'0 0.0
2016-Aug-28 06:32N 37°57' E 023°38'0 0.0
2016-Aug-28 05:32N 37°57' E 023°38'0 0.0
2016-Aug-28 04:32N 37°57' E 023°38'0 0.0
2016-Aug-28 03:33N 37°57' E 023°38'1414.1
2016-Aug-28 02:33N 37°43' E 023°44'2221.6
2016-Aug-28 01:32N 37°23' E 023°54'1221.7
2016-Aug-28 01:00N 37°12' E 024°00'67 5.5 360 / 201013.910.8 25.022.225.0
2016-Aug-27 13:00N 36°12' E 024°36'8324.1 360 / 351015.810.8 28.023.926.0
2016-Aug-27 09:33N 37°25' E 023°48'2424.4
2016-Aug-27 08:34N 37°48' E 023°37'8 8.3
2016-Aug-27 07:32N 37°57' E 023°38'0 0.0
2016-Aug-27 06:32N 37°57' E 023°38'0 0.0
2016-Aug-27 04:32N 37°57' E 023°38'0 0.1
2016-Aug-27 03:33N 37°57' E 023°38'1615.9
2016-Aug-27 02:34N 37°42' E 023°46'2221.5
2016-Aug-27 01:33N 37°21' E 023°54'77 6.1
2016-Aug-26 13:00N 36°12' E 024°36'8423.9 030 / 301012.910.8 28.023.925.0
2016-Aug-26 09:29N 37°27' E 023°49'2324.7
2016-Aug-26 08:34N 37°48' E 023°38'9 8.3
2016-Aug-26 07:31N 37°57' E 023°38'0 0.0
2016-Aug-26 06:31N 37°57' E 023°38'0 0.0
2016-Aug-26 04:33N 37°57' E 023°38'0 0.1
2016-Aug-26 03:33N 37°57' E 023°38'1413.9
2016-Aug-26 02:33N 37°43' E 023°44'2221.7
2016-Aug-26 01:33N 37°23' E 023°53'84 3.4
2016-Aug-25 01:00N 36°06' E 024°36'7820.6 340 / 161008.910.8 26.024.626.0
2016-Aug-24 21:12N 37°16' E 023°55'1421.4
2016-Aug-24 20:33N 37°29' E 023°48'2121.5
2016-Aug-24 19:33N 37°49' E 023°37'8 7.6
2016-Aug-24 18:33N 37°57' E 023°38'0 0.0
2016-Aug-24 17:32N 37°57' E 023°38'0 0.0
2016-Aug-24 16:32N 37°57' E 023°38'0 0.0
2016-Aug-24 15:32N 37°57' E 023°38'0 0.0
2016-Aug-24 14:32N 37°57' E 023°38'0 0.0
2016-Aug-24 13:32N 37°57' E 023°38'0 0.0
2016-Aug-24 12:32N 37°57' E 023°38'0 0.0
2016-Aug-24 11:32N 37°57' E 023°38'0 0.0
2016-Aug-24 10:32N 37°57' E 023°38'0 0.0
2016-Aug-24 09:32N 37°57' E 023°38'0 0.0
2016-Aug-24 08:32N 37°57' E 023°38'0 0.0
2016-Aug-24 07:32N 37°57' E 023°38'0 0.0
2016-Aug-24 06:32N 37°57' E 023°38'0 0.0
2016-Aug-24 04:32N 37°57' E 023°38'0 0.0
2016-Aug-24 03:33N 37°57' E 023°38'1212.6
2016-Aug-24 02:34N 37°45' E 023°43'2121.3
2016-Aug-24 01:33N 37°25' E 023°53'34 1.3
2016-Aug-22 23:13N 36°52' E 024°06'1522.4
2016-Aug-22 22:33N 37°06' E 023°59'2222.3
2016-Aug-22 21:33N 37°27' E 023°48'2222.4
2016-Aug-22 20:33N 37°47' E 023°38'9 9.2
2016-Aug-22 19:33N 37°57' E 023°38'0 0.0
2016-Aug-22 18:33N 37°57' E 023°38'0 0.0
2016-Aug-22 17:33N 37°57' E 023°38'0 0.0
2016-Aug-22 16:33N 37°57' E 023°38'0 0.0
2016-Aug-22 15:33N 37°57' E 023°38'0 0.0
2016-Aug-22 14:33N 37°57' E 023°38'0 0.0
2016-Aug-22 13:33N 37°57' E 023°38'0 0.0
2016-Aug-22 12:33N 37°57' E 023°38'0 0.0
2016-Aug-22 11:33N 37°57' E 023°38'0 0.0
2016-Aug-22 10:33N 37°57' E 023°38'0 0.0
2016-Aug-22 09:33N 37°57' E 023°38'0 0.0
2016-Aug-22 08:33N 37°57' E 023°38'0 0.0
2016-Aug-22 07:31N 37°57' E 023°38'0 0.0
2016-Aug-22 06:31N 37°57' E 023°38'0 0.0
2016-Aug-22 05:31N 37°57' E 023°38'0 0.0
2016-Aug-22 04:31N 37°57' E 023°38'0 0.1
2016-Aug-22 03:34N 37°57' E 023°38'1212.4
2016-Aug-22 02:34N 37°45' E 023°43'2221.7
2016-Aug-22 01:34N 37°25' E 023°53'2221.8
2016-Aug-22 00:33N 37°04' E 024°01'64 5.5
2016-Aug-21 13:00N 36°06' E 024°36'8725.1 340 / 151010.910.8 29.027.725.0
2016-Aug-21 09:33N 37°24' E 023°50'2525.0
2016-Aug-21 08:34N 37°47' E 023°38'9 9.1
2016-Aug-21 07:32N 37°57' E 023°38'0 0.0
2016-Aug-21 06:32N 37°57' E 023°38'0 0.0
2016-Aug-21 05:32N 37°57' E 023°38'0 0.0
2016-Aug-21 04:33N 37°57' E 023°38'0 0.0
2016-Aug-21 03:33N 37°57' E 023°38'1413.7
2016-Aug-21 02:33N 37°44' E 023°45'2221.6
2016-Aug-21 01:33N 37°23' E 023°54'1322.3
2016-Aug-21 01:00N 37°12' E 024°00'15 1.0 330 / 181010.410.8 26.024.626.0
2016-Aug-20 09:32N 37°25' E 023°50'2424.9
2016-Aug-20 08:34N 37°47' E 023°38'9 8.9
2016-Aug-20 07:31N 37°57' E 023°38'0 0.0
2016-Aug-20 06:31N 37°57' E 023°38'0 0.0
2016-Aug-20 05:31N 37°57' E 023°38'0 0.0
2016-Aug-20 04:31N 37°57' E 023°38'0 0.0
2016-Aug-20 03:33N 37°57' E 023°38'1211.6
2016-Aug-20 02:34N 37°46' E 023°43'2221.9
2016-Aug-20 01:33N 37°25' E 023°53'1425.4
2016-Aug-20 01:00N 37°12' E 024°00'817.7 999 / 121008.410.8 25.023.626.0
2016-Aug-20 00:34N 37°05' E 024°02'2221.7
2016-Aug-19 23:33N 36°44' E 024°12'  

Dump ship's entire track history